sensor_id;sensor_type;location;lat;lon;timestamp;P1;durP1;ratioP1;P2;durP2;ratioP2
31978;SDS011;18502;43.574;1.276;2022-12-05T06:49:34;47.42;;;27.92;;
31978;SDS011;18502;43.574;1.276;2022-12-05T06:52:00;57.33;;;33.35;;
31978;SDS011;18502;43.574;1.276;2022-12-05T06:54:26;58.67;;;31.30;;
31978;SDS011;18502;43.574;1.276;2022-12-05T06:56:51;50.25;;;28.42;;
31978;SDS011;18502;43.574;1.276;2022-12-05T06:59:17;51.38;;;28.63;;
31978;SDS011;18502;43.574;1.276;2022-12-05T07:01:43;55.75;;;28.30;;
31978;SDS011;18502;43.574;1.276;2022-12-05T07:04:20;55.50;;;29.27;;
31978;SDS011;18502;43.574;1.276;2022-12-05T07:06:48;54.88;;;28.60;;
31978;SDS011;18502;43.574;1.276;2022-12-05T07:09:15;55.60;;;29.60;;
31978;SDS011;18502;43.574;1.276;2022-12-05T07:11:43;60.58;;;32.08;;
31978;SDS011;18502;43.574;1.276;2022-12-05T07:14:13;68.38;;;36.88;;
31978;SDS011;18502;43.574;1.276;2022-12-05T07:16:39;54.78;;;30.80;;
31978;SDS011;18502;43.574;1.276;2022-12-05T07:19:05;59.97;;;33.10;;
31978;SDS011;18502;43.574;1.276;2022-12-05T07:21:30;78.25;;;34.88;;
31978;SDS011;18502;43.574;1.276;2022-12-05T07:23:56;74.07;;;32.05;;
31978;SDS011;18502;43.574;1.276;2022-12-05T07:26:22;80.55;;;30.85;;
31978;SDS011;18502;43.574;1.276;2022-12-05T07:28:49;182.50;;;51.90;;
31978;SDS011;18502;43.574;1.276;2022-12-05T07:31:16;156.35;;;47.88;;
31978;SDS011;18502;43.574;1.276;2022-12-05T07:33:47;131.77;;;45.40;;
31978;SDS011;18502;43.574;1.276;2022-12-05T07:36:14;114.15;;;39.42;;
31978;SDS011;18502;43.574;1.276;2022-12-05T07:38:45;127.00;;;41.85;;
31978;SDS011;18502;43.574;1.276;2022-12-05T07:41:29;119.07;;;41.63;;
31978;SDS011;18502;43.574;1.276;2022-12-05T07:43:57;145.40;;;46.03;;
31978;SDS011;18502;43.574;1.276;2022-12-05T07:46:23;146.88;;;45.13;;
31978;SDS011;18502;43.574;1.276;2022-12-05T07:48:51;132.38;;;46.75;;
31978;SDS011;18502;43.574;1.276;2022-12-05T07:51:18;130.20;;;43.88;;
31978;SDS011;18502;43.574;1.276;2022-12-05T07:53:45;107.55;;;38.88;;
31978;SDS011;18502;43.574;1.276;2022-12-05T07:56:12;150.50;;;50.28;;
31978;SDS011;18502;43.574;1.276;2022-12-05T07:58:41;192.45;;;56.05;;
31978;SDS011;18502;43.574;1.276;2022-12-05T08:01:14;154.52;;;49.80;;
31978;SDS011;18502;43.574;1.276;2022-12-05T08:03:44;151.80;;;47.15;;
31978;SDS011;18502;43.574;1.276;2022-12-05T08:06:12;90.07;;;34.88;;
31978;SDS011;18502;43.574;1.276;2022-12-05T08:08:40;70.65;;;30.65;;
31978;SDS011;18502;43.574;1.276;2022-12-05T08:13:51;89.63;;;34.38;;
31978;SDS011;18502;43.574;1.276;2022-12-05T08:16:18;55.50;;;27.50;;
31978;SDS011;18502;43.574;1.276;2022-12-05T08:18:45;63.13;;;29.77;;
31978;SDS011;18502;43.574;1.276;2022-12-05T08:21:15;59.38;;;30.20;;
31978;SDS011;18502;43.574;1.276;2022-12-05T08:23:42;56.13;;;28.40;;
31978;SDS011;18502;43.574;1.276;2022-12-05T08:26:10;53.03;;;27.75;;
31978;SDS011;18502;43.574;1.276;2022-12-05T08:28:38;49.80;;;25.48;;
31978;SDS011;18502;43.574;1.276;2022-12-05T08:31:15;41.75;;;22.05;;
31978;SDS011;18502;43.574;1.276;2022-12-05T08:33:42;43.78;;;23.40;;
31978;SDS011;18502;43.574;1.276;2022-12-05T08:36:10;45.28;;;23.27;;
31978;SDS011;18502;43.574;1.276;2022-12-05T08:38:37;47.00;;;23.23;;
31978;SDS011;18502;43.574;1.276;2022-12-05T08:41:04;37.80;;;21.20;;
31978;SDS011;18502;43.574;1.276;2022-12-05T08:43:31;35.97;;;20.95;;
31978;SDS011;18502;43.574;1.276;2022-12-05T08:45:57;32.28;;;18.05;;
31978;SDS011;18502;43.574;1.276;2022-12-05T08:48:24;34.42;;;19.27;;
31978;SDS011;18502;43.574;1.276;2022-12-05T08:50:50;37.40;;;22.20;;
31978;SDS011;18502;43.574;1.276;2022-12-05T08:53:16;40.15;;;22.42;;
31978;SDS011;18502;43.574;1.276;2022-12-05T08:55:41;44.15;;;24.70;;
31978;SDS011;18502;43.574;1.276;2022-12-05T08:58:07;46.38;;;25.85;;
31978;SDS011;18502;43.574;1.276;2022-12-05T09:00:33;44.40;;;23.83;;
31978;SDS011;18502;43.574;1.276;2022-12-05T09:02:59;41.00;;;24.15;;
31978;SDS011;18502;43.574;1.276;2022-12-05T09:05:25;42.47;;;25.30;;
31978;SDS011;18502;43.574;1.276;2022-12-05T09:07:50;39.67;;;23.90;;
31978;SDS011;18502;43.574;1.276;2022-12-05T09:10:16;35.42;;;20.60;;
31978;SDS011;18502;43.574;1.276;2022-12-05T09:12:42;29.30;;;18.90;;
31978;SDS011;18502;43.574;1.276;2022-12-05T09:15:09;33.50;;;18.42;;
31978;SDS011;18502;43.574;1.276;2022-12-05T09:17:36;33.53;;;21.40;;
31978;SDS011;18502;43.574;1.276;2022-12-05T09:20:02;25.95;;;17.38;;
31978;SDS011;18502;43.574;1.276;2022-12-05T09:22:29;26.85;;;16.95;;
31978;SDS011;18502;43.574;1.276;2022-12-05T09:24:55;27.17;;;16.90;;
31978;SDS011;18502;43.574;1.276;2022-12-05T09:27:20;22.83;;;14.05;;
31978;SDS011;18502;43.574;1.276;2022-12-05T09:29:46;22.25;;;14.00;;
31978;SDS011;18502;43.574;1.276;2022-12-05T09:32:11;22.00;;;14.43;;
31978;SDS011;18502;43.574;1.276;2022-12-05T09:34:37;23.85;;;15.25;;
31978;SDS011;18502;43.574;1.276;2022-12-05T09:37:03;21.35;;;13.70;;
31978;SDS011;18502;43.574;1.276;2022-12-05T09:39:30;23.83;;;13.32;;
31978;SDS011;18502;43.574;1.276;2022-12-05T09:49:59;19.50;;;13.15;;
31978;SDS011;18502;43.574;1.276;2022-12-05T09:52:36;21.45;;;14.70;;
31978;SDS011;18502;43.574;1.276;2022-12-05T09:55:10;21.30;;;14.43;;
31978;SDS011;18502;43.574;1.276;2022-12-05T09:57:51;25.85;;;15.80;;
31978;SDS011;18502;43.574;1.276;2022-12-05T10:00:21;23.63;;;15.83;;
31978;SDS011;18502;43.574;1.276;2022-12-05T10:03:02;21.10;;;13.63;;
31978;SDS011;18502;43.574;1.276;2022-12-05T10:05:41;19.52;;;13.65;;
31978;SDS011;18502;43.574;1.276;2022-12-05T10:08:20;23.40;;;13.88;;
31978;SDS011;18502;43.574;1.276;2022-12-05T10:11:01;23.25;;;14.77;;
31978;SDS011;18502;43.574;1.276;2022-12-05T10:13:44;18.15;;;13.40;;
31978;SDS011;18502;43.574;1.276;2022-12-05T10:16:24;23.30;;;14.32;;
31978;SDS011;18502;43.574;1.276;2022-12-05T10:19:10;17.73;;;12.80;;
31978;SDS011;18502;43.574;1.276;2022-12-05T10:22:01;19.02;;;12.30;;
31978;SDS011;18502;43.574;1.276;2022-12-05T10:24:37;21.80;;;13.45;;
31978;SDS011;18502;43.574;1.276;2022-12-05T10:27:07;21.65;;;13.45;;
31978;SDS011;18502;43.574;1.276;2022-12-05T10:29:52;19.42;;;12.27;;
31978;SDS011;18502;43.574;1.276;2022-12-05T10:32:36;16.17;;;12.13;;
31978;SDS011;18502;43.574;1.276;2022-12-05T10:37:57;21.77;;;13.73;;
31978;SDS011;18502;43.574;1.276;2022-12-05T10:40:58;23.45;;;15.05;;
31978;SDS011;18502;43.574;1.276;2022-12-05T10:43:29;22.92;;;14.05;;
31978;SDS011;18502;43.574;1.276;2022-12-05T10:45:57;17.00;;;12.57;;
31978;SDS011;18502;43.574;1.276;2022-12-05T10:48:24;17.58;;;13.07;;
31978;SDS011;18502;43.574;1.276;2022-12-05T10:50:51;21.15;;;13.68;;
31978;SDS011;18502;43.574;1.276;2022-12-05T10:53:26;20.73;;;13.10;;
31978;SDS011;18502;43.574;1.276;2022-12-05T10:55:56;24.65;;;14.40;;
31978;SDS011;18502;43.574;1.276;2022-12-05T10:58:26;17.40;;;11.75;;
31978;SDS011;18502;43.574;1.276;2022-12-05T11:00:57;21.35;;;14.68;;
31978;SDS011;18502;43.574;1.276;2022-12-05T11:03:33;18.08;;;11.98;;
31978;SDS011;18502;43.574;1.276;2022-12-05T11:06:14;14.85;;;10.02;;
31978;SDS011;18502;43.574;1.276;2022-12-05T11:08:41;12.48;;;8.68;;
31978;SDS011;18502;43.574;1.276;2022-12-05T11:14:04;14.52;;;8.55;;
31978;SDS011;18502;43.574;1.276;2022-12-05T11:16:35;9.23;;;7.03;;
31978;SDS011;18502;43.574;1.276;2022-12-05T11:21:43;8.73;;;6.07;;
31978;SDS011;18502;43.574;1.276;2022-12-05T11:24:28;8.73;;;5.97;;
31978;SDS011;18502;43.574;1.276;2022-12-05T11:26:55;7.55;;;5.80;;
31978;SDS011;18502;43.574;1.276;2022-12-05T11:31:56;9.55;;;5.40;;
31978;SDS011;18502;43.574;1.276;2022-12-05T11:34:22;8.55;;;5.45;;
31978;SDS011;18502;43.574;1.276;2022-12-05T11:37:02;5.25;;;4.30;;
31978;SDS011;18502;43.574;1.276;2022-12-05T11:39:35;7.57;;;5.25;;
31978;SDS011;18502;43.574;1.276;2022-12-05T11:42:05;5.35;;;3.88;;
31978;SDS011;18502;43.574;1.276;2022-12-05T11:55:23;4.10;;;3.70;;
31978;SDS011;18502;43.574;1.276;2022-12-05T12:11:42;7.32;;;3.50;;
31978;SDS011;18502;43.574;1.276;2022-12-05T12:14:25;4.70;;;2.87;;
31978;SDS011;18502;43.574;1.276;2022-12-05T12:23:04;2.85;;;2.50;;
31978;SDS011;18502;43.574;1.276;2022-12-05T12:25:22;4.43;;;2.20;;
31978;SDS011;18502;43.574;1.276;2022-12-05T12:36:24;3.92;;;2.60;;
31978;SDS011;18502;43.574;1.276;2022-12-05T12:47:54;9.10;;;5.43;;
31978;SDS011;18502;43.574;1.276;2022-12-05T12:50:26;4.30;;;3.90;;
31978;SDS011;18502;43.574;1.276;2022-12-05T13:01:10;6.80;;;4.40;;
31978;SDS011;18502;43.574;1.276;2022-12-05T13:04:19;12.55;;;6.40;;
31978;SDS011;18502;43.574;1.276;2022-12-05T13:06:54;13.60;;;6.40;;
31978;SDS011;18502;43.574;1.276;2022-12-05T13:12:21;5.97;;;4.00;;
31978;SDS011;18502;43.574;1.276;2022-12-05T13:14:51;5.47;;;3.90;;
31978;SDS011;18502;43.574;1.276;2022-12-05T13:17:39;17.52;;;7.03;;
31978;SDS011;18502;43.574;1.276;2022-12-05T13:20:17;16.10;;;7.25;;
31978;SDS011;18502;43.574;1.276;2022-12-05T13:22:46;23.98;;;8.80;;
31978;SDS011;18502;43.574;1.276;2022-12-05T13:25:14;47.20;;;13.90;;
31978;SDS011;18502;43.574;1.276;2022-12-05T13:27:52;30.20;;;9.63;;
31978;SDS011;18502;43.574;1.276;2022-12-05T13:30:20;25.38;;;8.60;;
31978;SDS011;18502;43.574;1.276;2022-12-05T13:32:46;18.23;;;6.68;;
31978;SDS011;18502;43.574;1.276;2022-12-05T13:35:42;11.95;;;5.68;;
31978;SDS011;18502;43.574;1.276;2022-12-05T13:38:29;15.13;;;6.00;;
31978;SDS011;18502;43.574;1.276;2022-12-05T13:41:16;18.85;;;7.07;;
31978;SDS011;18502;43.574;1.276;2022-12-05T13:44:00;6.43;;;4.07;;
31978;SDS011;18502;43.574;1.276;2022-12-05T13:46:28;10.75;;;5.60;;
31978;SDS011;18502;43.574;1.276;2022-12-05T13:49:05;10.53;;;5.50;;
31978;SDS011;18502;43.574;1.276;2022-12-05T13:51:38;11.30;;;6.13;;
31978;SDS011;18502;43.574;1.276;2022-12-05T13:56:56;14.00;;;7.22;;
31978;SDS011;18502;43.574;1.276;2022-12-05T14:02:52;9.50;;;4.63;;
31978;SDS011;18502;43.574;1.276;2022-12-05T14:12:56;13.98;;;6.80;;
31978;SDS011;18502;43.574;1.276;2022-12-05T14:15:36;13.40;;;6.15;;
31978;SDS011;18502;43.574;1.276;2022-12-05T14:23:56;8.75;;;4.55;;
31978;SDS011;18502;43.574;1.276;2022-12-05T14:30:08;8.00;;;3.80;;
31978;SDS011;18502;43.574;1.276;2022-12-05T14:32:39;4.50;;;3.55;;
31978;SDS011;18502;43.574;1.276;2022-12-05T14:37:42;11.68;;;6.45;;
31978;SDS011;18502;43.574;1.276;2022-12-05T14:40:33;6.82;;;4.30;;
31978;SDS011;18502;43.574;1.276;2022-12-05T14:48:30;7.53;;;4.35;;
31978;SDS011;18502;43.574;1.276;2022-12-05T14:50:58;10.23;;;5.53;;
31978;SDS011;18502;43.574;1.276;2022-12-05T15:06:43;7.63;;;4.57;;
31978;SDS011;18502;43.574;1.276;2022-12-05T15:12:21;9.93;;;5.20;;
31978;SDS011;18502;43.574;1.276;2022-12-05T15:14:56;11.10;;;4.38;;
31978;SDS011;18502;43.574;1.276;2022-12-05T15:18:07;11.90;;;4.47;;
31978;SDS011;18502;43.574;1.276;2022-12-05T15:20:42;13.13;;;5.43;;
31978;SDS011;18502;43.574;1.276;2022-12-05T15:26:04;12.45;;;7.93;;
31978;SDS011;18502;43.574;1.276;2022-12-05T15:28:38;14.13;;;7.53;;
31978;SDS011;18502;43.574;1.276;2022-12-05T15:31:04;14.05;;;7.85;;
31978;SDS011;18502;43.574;1.276;2022-12-05T15:33:35;11.93;;;5.53;;
31978;SDS011;18502;43.574;1.276;2022-12-05T15:36:13;7.65;;;5.70;;
31978;SDS011;18502;43.574;1.276;2022-12-05T15:38:39;16.83;;;7.18;;
31978;SDS011;18502;43.574;1.276;2022-12-05T15:41:09;10.18;;;7.68;;
31978;SDS011;18502;43.574;1.276;2022-12-05T15:43:41;12.45;;;7.53;;
31978;SDS011;18502;43.574;1.276;2022-12-05T15:46:19;11.15;;;7.78;;
31978;SDS011;18502;43.574;1.276;2022-12-05T15:48:50;18.95;;;8.35;;
31978;SDS011;18502;43.574;1.276;2022-12-05T15:51:16;21.92;;;8.13;;
31978;SDS011;18502;43.574;1.276;2022-12-05T15:54:05;19.58;;;8.98;;
31978;SDS011;18502;43.574;1.276;2022-12-05T15:56:33;18.23;;;7.65;;
31978;SDS011;18502;43.574;1.276;2022-12-05T15:59:06;33.05;;;9.10;;
31978;SDS011;18502;43.574;1.276;2022-12-05T16:02:00;32.45;;;12.98;;
31978;SDS011;18502;43.574;1.276;2022-12-05T16:04:35;32.95;;;16.17;;
31978;SDS011;18502;43.574;1.276;2022-12-05T16:07:20;37.40;;;20.38;;
31978;SDS011;18502;43.574;1.276;2022-12-05T16:09:49;46.15;;;23.45;;
31978;SDS011;18502;43.574;1.276;2022-12-05T16:14:55;75.90;;;32.00;;
31978;SDS011;18502;43.574;1.276;2022-12-05T16:17:25;57.80;;;24.65;;
31978;SDS011;18502;43.574;1.276;2022-12-05T16:20:08;104.30;;;43.20;;
31978;SDS011;18502;43.574;1.276;2022-12-05T16:22:43;89.03;;;34.53;;
31978;SDS011;18502;43.574;1.276;2022-12-05T16:25:13;31.83;;;14.90;;
31978;SDS011;18502;43.574;1.276;2022-12-05T16:28:03;80.55;;;32.88;;
31978;SDS011;18502;43.574;1.276;2022-12-05T16:30:38;89.53;;;38.22;;
31978;SDS011;18502;43.574;1.276;2022-12-05T16:33:14;86.55;;;38.97;;
31978;SDS011;18502;43.574;1.276;2022-12-05T16:38:17;96.53;;;47.75;;
31978;SDS011;18502;43.574;1.276;2022-12-05T16:48:44;85.25;;;35.63;;
31978;SDS011;18502;43.574;1.276;2022-12-05T16:53:39;117.80;;;44.15;;
31978;SDS011;18502;43.574;1.276;2022-12-05T16:56:06;97.18;;;33.88;;
31978;SDS011;18502;43.574;1.276;2022-12-05T16:58:39;59.03;;;23.48;;
31978;SDS011;18502;43.574;1.276;2022-12-05T17:01:05;95.78;;;31.42;;
31978;SDS011;18502;43.574;1.276;2022-12-05T17:03:32;109.85;;;38.67;;
31978;SDS011;18502;43.574;1.276;2022-12-05T17:05:58;124.68;;;39.30;;
31978;SDS011;18502;43.574;1.276;2022-12-05T17:08:24;118.70;;;40.95;;
31978;SDS011;18502;43.574;1.276;2022-12-05T17:10:51;103.28;;;36.17;;
31978;SDS011;18502;43.574;1.276;2022-12-05T17:13:17;66.70;;;24.58;;
31978;SDS011;18502;43.574;1.276;2022-12-05T17:15:43;39.38;;;18.00;;
31978;SDS011;18502;43.574;1.276;2022-12-05T17:18:14;27.92;;;14.25;;
31978;SDS011;18502;43.574;1.276;2022-12-05T17:20:42;26.90;;;12.75;;
31978;SDS011;18502;43.574;1.276;2022-12-05T17:23:10;26.95;;;12.98;;
31978;SDS011;18502;43.574;1.276;2022-12-05T17:25:43;20.83;;;11.00;;
31978;SDS011;18502;43.574;1.276;2022-12-05T17:28:13;21.48;;;12.40;;
31978;SDS011;18502;43.574;1.276;2022-12-05T17:30:38;22.67;;;12.65;;
31978;SDS011;18502;43.574;1.276;2022-12-05T17:33:05;21.95;;;14.25;;
31978;SDS011;18502;43.574;1.276;2022-12-05T17:35:33;20.83;;;12.90;;
31978;SDS011;18502;43.574;1.276;2022-12-05T17:38:00;25.25;;;13.02;;
31978;SDS011;18502;43.574;1.276;2022-12-05T17:40:27;20.55;;;12.55;;
31978;SDS011;18502;43.574;1.276;2022-12-05T17:42:53;22.98;;;13.00;;
31978;SDS011;18502;43.574;1.276;2022-12-05T17:45:18;21.00;;;13.27;;
31978;SDS011;18502;43.574;1.276;2022-12-05T17:47:44;22.35;;;13.23;;
31978;SDS011;18502;43.574;1.276;2022-12-05T17:50:13;26.35;;;16.42;;
31978;SDS011;18502;43.574;1.276;2022-12-05T17:52:41;22.83;;;16.00;;
31978;SDS011;18502;43.574;1.276;2022-12-05T17:55:12;26.98;;;15.85;;
31978;SDS011;18502;43.574;1.276;2022-12-05T17:57:43;24.40;;;13.70;;
31978;SDS011;18502;43.574;1.276;2022-12-05T18:00:10;20.90;;;10.98;;
31978;SDS011;18502;43.574;1.276;2022-12-05T18:02:37;19.40;;;12.27;;
31978;SDS011;18502;43.574;1.276;2022-12-05T18:05:03;20.38;;;12.57;;
31978;SDS011;18502;43.574;1.276;2022-12-05T18:07:29;24.63;;;15.07;;
31978;SDS011;18502;43.574;1.276;2022-12-05T18:09:54;24.90;;;14.93;;
31978;SDS011;18502;43.574;1.276;2022-12-05T18:12:20;19.10;;;12.07;;
31978;SDS011;18502;43.574;1.276;2022-12-05T18:14:46;13.32;;;7.88;;
31978;SDS011;18502;43.574;1.276;2022-12-05T18:17:12;17.30;;;9.18;;
31978;SDS011;18502;43.574;1.276;2022-12-05T18:19:38;13.57;;;7.63;;
31978;SDS011;18502;43.574;1.276;2022-12-05T18:22:04;18.88;;;10.25;;
31978;SDS011;18502;43.574;1.276;2022-12-05T18:24:29;15.52;;;7.60;;
31978;SDS011;18502;43.574;1.276;2022-12-05T18:26:55;8.50;;;4.80;;
31978;SDS011;18502;43.574;1.276;2022-12-05T18:29:22;13.45;;;7.43;;
31978;SDS011;18502;43.574;1.276;2022-12-05T18:31:48;7.25;;;4.70;;
31978;SDS011;18502;43.574;1.276;2022-12-05T18:34:14;10.32;;;6.10;;
31978;SDS011;18502;43.574;1.276;2022-12-05T18:36:39;9.60;;;5.93;;
31978;SDS011;18502;43.574;1.276;2022-12-05T18:39:05;17.10;;;8.80;;
31978;SDS011;18502;43.574;1.276;2022-12-05T18:41:34;15.48;;;7.70;;
31978;SDS011;18502;43.574;1.276;2022-12-05T18:44:00;15.07;;;7.32;;
31978;SDS011;18502;43.574;1.276;2022-12-05T18:46:26;12.82;;;6.75;;
31978;SDS011;18502;43.574;1.276;2022-12-05T18:48:51;14.90;;;6.63;;
31978;SDS011;18502;43.574;1.276;2022-12-05T18:51:21;11.40;;;5.32;;
31978;SDS011;18502;43.574;1.276;2022-12-05T18:53:49;10.93;;;5.57;;
31978;SDS011;18502;43.574;1.276;2022-12-05T18:56:16;12.82;;;6.80;;
31978;SDS011;18502;43.574;1.276;2022-12-05T18:58:43;10.10;;;5.78;;
31978;SDS011;18502;43.574;1.276;2022-12-05T19:01:10;10.95;;;6.00;;
31978;SDS011;18502;43.574;1.276;2022-12-05T19:03:37;9.95;;;5.35;;
31978;SDS011;18502;43.574;1.276;2022-12-05T19:06:14;9.32;;;5.82;;
31978;SDS011;18502;43.574;1.276;2022-12-05T19:08:41;12.70;;;7.15;;
31978;SDS011;18502;43.574;1.276;2022-12-05T19:11:09;13.85;;;7.68;;
31978;SDS011;18502;43.574;1.276;2022-12-05T19:13:39;8.80;;;5.32;;
31978;SDS011;18502;43.574;1.276;2022-12-05T19:16:06;11.30;;;5.63;;
31978;SDS011;18502;43.574;1.276;2022-12-05T19:18:38;14.10;;;7.03;;
31978;SDS011;18502;43.574;1.276;2022-12-05T19:21:04;10.73;;;6.53;;
31978;SDS011;18502;43.574;1.276;2022-12-05T19:23:31;11.80;;;6.97;;
31978;SDS011;18502;43.574;1.276;2022-12-05T19:26:02;9.50;;;5.70;;
31978;SDS011;18502;43.574;1.276;2022-12-05T19:28:32;9.75;;;6.10;;
31978;SDS011;18502;43.574;1.276;2022-12-05T19:33:35;8.15;;;4.82;;
31978;SDS011;18502;43.574;1.276;2022-12-05T19:36:08;8.85;;;5.00;;
31978;SDS011;18502;43.574;1.276;2022-12-05T19:38:42;8.65;;;4.45;;
31978;SDS011;18502;43.574;1.276;2022-12-05T19:41:10;7.45;;;3.92;;
31978;SDS011;18502;43.574;1.276;2022-12-05T19:43:38;7.68;;;4.22;;
31978;SDS011;18502;43.574;1.276;2022-12-05T19:46:05;6.50;;;3.55;;
31978;SDS011;18502;43.574;1.276;2022-12-05T19:48:34;11.38;;;6.20;;
31978;SDS011;18502;43.574;1.276;2022-12-05T19:51:00;8.68;;;4.80;;
31978;SDS011;18502;43.574;1.276;2022-12-05T19:53:27;6.07;;;3.55;;
31978;SDS011;18502;43.574;1.276;2022-12-05T19:55:59;9.05;;;4.72;;
31978;SDS011;18502;43.574;1.276;2022-12-05T20:00:51;6.88;;;3.67;;
31978;SDS011;18502;43.574;1.276;2022-12-05T20:03:17;5.93;;;3.70;;
31978;SDS011;18502;43.574;1.276;2022-12-05T20:05:42;5.15;;;3.35;;
31978;SDS011;18502;43.574;1.276;2022-12-05T20:08:19;5.65;;;3.28;;
31978;SDS011;18502;43.574;1.276;2022-12-05T20:10:44;6.25;;;3.63;;
31978;SDS011;18502;43.574;1.276;2022-12-05T20:13:10;7.05;;;3.08;;
31978;SDS011;18502;43.574;1.276;2022-12-05T20:15:36;5.43;;;3.38;;
31978;SDS011;18502;43.574;1.276;2022-12-05T20:18:01;6.50;;;3.70;;
31978;SDS011;18502;43.574;1.276;2022-12-05T20:20:27;6.10;;;3.47;;
31978;SDS011;18502;43.574;1.276;2022-12-05T20:22:53;6.28;;;4.05;;
31978;SDS011;18502;43.574;1.276;2022-12-05T20:25:19;6.05;;;3.53;;
31978;SDS011;18502;43.574;1.276;2022-12-05T20:27:44;9.27;;;4.20;;
31978;SDS011;18502;43.574;1.276;2022-12-05T20:30:10;5.28;;;3.80;;
31978;SDS011;18502;43.574;1.276;2022-12-05T20:32:36;6.43;;;3.53;;
31978;SDS011;18502;43.574;1.276;2022-12-05T20:35:02;6.80;;;4.07;;
31978;SDS011;18502;43.574;1.276;2022-12-05T20:37:27;6.90;;;3.70;;
31978;SDS011;18502;43.574;1.276;2022-12-05T20:39:53;8.10;;;4.10;;
31978;SDS011;18502;43.574;1.276;2022-12-05T20:42:19;6.65;;;4.00;;
31978;SDS011;18502;43.574;1.276;2022-12-05T20:44:44;6.30;;;4.28;;
31978;SDS011;18502;43.574;1.276;2022-12-05T20:47:10;6.18;;;3.72;;
31978;SDS011;18502;43.574;1.276;2022-12-05T20:49:36;6.05;;;4.03;;
31978;SDS011;18502;43.574;1.276;2022-12-05T20:52:01;4.60;;;3.60;;
31978;SDS011;18502;43.574;1.276;2022-12-05T20:54:27;7.60;;;4.70;;
31978;SDS011;18502;43.574;1.276;2022-12-05T20:56:53;8.20;;;4.22;;
31978;SDS011;18502;43.574;1.276;2022-12-05T20:59:18;6.20;;;4.43;;
31978;SDS011;18502;43.574;1.276;2022-12-05T21:01:44;6.22;;;4.32;;
31978;SDS011;18502;43.574;1.276;2022-12-05T21:04:11;9.57;;;5.28;;
31978;SDS011;18502;43.574;1.276;2022-12-05T21:06:37;7.30;;;4.43;;
31978;SDS011;18502;43.574;1.276;2022-12-05T21:09:05;7.03;;;4.80;;
31978;SDS011;18502;43.574;1.276;2022-12-05T21:11:40;6.03;;;4.57;;
31978;SDS011;18502;43.574;1.276;2022-12-05T21:14:06;7.25;;;4.55;;
31978;SDS011;18502;43.574;1.276;2022-12-05T21:16:32;7.10;;;4.40;;
31978;SDS011;18502;43.574;1.276;2022-12-05T21:18:58;7.95;;;4.57;;
31978;SDS011;18502;43.574;1.276;2022-12-05T21:21:25;11.43;;;4.55;;
31978;SDS011;18502;43.574;1.276;2022-12-05T21:23:53;8.52;;;4.95;;
31978;SDS011;18502;43.574;1.276;2022-12-05T21:26:19;7.47;;;5.22;;
31978;SDS011;18502;43.574;1.276;2022-12-05T21:28:46;6.30;;;4.13;;
31978;SDS011;18502;43.574;1.276;2022-12-05T21:33:45;6.03;;;3.80;;
31978;SDS011;18502;43.574;1.276;2022-12-05T21:36:12;7.00;;;4.30;;
31978;SDS011;18502;43.574;1.276;2022-12-05T21:38:38;11.02;;;4.25;;
31978;SDS011;18502;43.574;1.276;2022-12-05T21:41:04;6.50;;;4.00;;
31978;SDS011;18502;43.574;1.276;2022-12-05T21:43:31;7.07;;;4.20;;
31978;SDS011;18502;43.574;1.276;2022-12-05T21:45:58;8.30;;;4.78;;
31978;SDS011;18502;43.574;1.276;2022-12-05T21:48:24;6.38;;;4.07;;
31978;SDS011;18502;43.574;1.276;2022-12-05T21:50:50;5.78;;;3.88;;
31978;SDS011;18502;43.574;1.276;2022-12-05T21:53:16;6.22;;;4.53;;
31978;SDS011;18502;43.574;1.276;2022-12-05T21:55:42;7.82;;;4.80;;
31978;SDS011;18502;43.574;1.276;2022-12-05T21:58:09;7.55;;;4.38;;
31978;SDS011;18502;43.574;1.276;2022-12-05T22:00:35;5.35;;;4.13;;
31978;SDS011;18502;43.574;1.276;2022-12-05T22:03:01;6.72;;;3.85;;
31978;SDS011;18502;43.574;1.276;2022-12-05T22:05:28;6.97;;;4.18;;
31978;SDS011;18502;43.574;1.276;2022-12-05T22:07:53;6.47;;;4.07;;
31978;SDS011;18502;43.574;1.276;2022-12-05T22:10:19;6.18;;;4.05;;
31978;SDS011;18502;43.574;1.276;2022-12-05T22:12:45;4.53;;;3.47;;
31978;SDS011;18502;43.574;1.276;2022-12-05T22:15:10;4.63;;;3.33;;
31978;SDS011;18502;43.574;1.276;2022-12-05T22:17:36;6.15;;;4.63;;
31978;SDS011;18502;43.574;1.276;2022-12-05T22:20:03;6.80;;;3.55;;
31978;SDS011;18502;43.574;1.276;2022-12-05T22:22:29;5.53;;;4.07;;
31978;SDS011;18502;43.574;1.276;2022-12-05T22:24:55;7.93;;;4.07;;
31978;SDS011;18502;43.574;1.276;2022-12-05T22:27:20;7.50;;;4.00;;
31978;SDS011;18502;43.574;1.276;2022-12-05T22:29:47;6.15;;;3.97;;
31978;SDS011;18502;43.574;1.276;2022-12-05T22:32:12;7.28;;;4.15;;
31978;SDS011;18502;43.574;1.276;2022-12-05T22:34:38;7.90;;;4.57;;
31978;SDS011;18502;43.574;1.276;2022-12-05T22:37:04;7.50;;;4.22;;
31978;SDS011;18502;43.574;1.276;2022-12-05T22:39:29;5.65;;;3.30;;
31978;SDS011;18502;43.574;1.276;2022-12-05T22:41:55;7.15;;;4.28;;
31978;SDS011;18502;43.574;1.276;2022-12-05T22:44:22;10.45;;;4.65;;
31978;SDS011;18502;43.574;1.276;2022-12-05T22:46:48;6.43;;;4.40;;
31978;SDS011;18502;43.574;1.276;2022-12-05T22:49:13;8.50;;;4.50;;
31978;SDS011;18502;43.574;1.276;2022-12-05T22:51:39;7.18;;;4.70;;
31978;SDS011;18502;43.574;1.276;2022-12-05T22:54:05;6.35;;;4.25;;
31978;SDS011;18502;43.574;1.276;2022-12-05T22:56:31;7.90;;;4.10;;
31978;SDS011;18502;43.574;1.276;2022-12-05T22:58:57;7.65;;;4.45;;
31978;SDS011;18502;43.574;1.276;2022-12-05T23:01:27;9.15;;;4.45;;
31978;SDS011;18502;43.574;1.276;2022-12-05T23:03:58;6.07;;;3.83;;
31978;SDS011;18502;43.574;1.276;2022-12-05T23:06:28;6.00;;;3.95;;
31978;SDS011;18502;43.574;1.276;2022-12-05T23:08:55;6.53;;;3.75;;
31978;SDS011;18502;43.574;1.276;2022-12-05T23:11:21;4.00;;;3.00;;
31978;SDS011;18502;43.574;1.276;2022-12-05T23:13:48;5.35;;;3.17;;
31978;SDS011;18502;43.574;1.276;2022-12-05T23:16:15;5.47;;;2.83;;
31978;SDS011;18502;43.574;1.276;2022-12-05T23:18:46;4.95;;;2.90;;
31978;SDS011;18502;43.574;1.276;2022-12-05T23:23:46;5.25;;;2.75;;
31978;SDS011;18502;43.574;1.276;2022-12-05T23:26:13;6.30;;;3.25;;
31978;SDS011;18502;43.574;1.276;2022-12-05T23:28:39;4.05;;;2.80;;
31978;SDS011;18502;43.574;1.276;2022-12-05T23:31:06;4.45;;;2.67;;
31978;SDS011;18502;43.574;1.276;2022-12-05T23:33:33;5.55;;;3.03;;
31978;SDS011;18502;43.574;1.276;2022-12-05T23:35:59;4.28;;;2.90;;
31978;SDS011;18502;43.574;1.276;2022-12-05T23:38:25;6.47;;;3.72;;
31978;SDS011;18502;43.574;1.276;2022-12-05T23:41:01;7.25;;;4.53;;
31978;SDS011;18502;43.574;1.276;2022-12-05T23:43:29;10.20;;;4.28;;
31978;SDS011;18502;43.574;1.276;2022-12-05T23:45:56;9.32;;;3.42;;
31978;SDS011;18502;43.574;1.276;2022-12-05T23:48:23;6.25;;;3.15;;
31978;SDS011;18502;43.574;1.276;2022-12-05T23:50:55;4.68;;;3.00;;
31978;SDS011;18502;43.574;1.276;2022-12-05T23:53:27;6.10;;;3.97;;
31978;SDS011;18502;43.574;1.276;2022-12-05T23:58:29;10.32;;;5.20;;
